マドリード/バラハス の空港の天気 - METARとTAF

マドリード・バラハス国際空港 ( LEMD / MAD ) - スペイン マドリード
飛行場実況気象(Metar)
観測時間02/28 01:30 CET (02/28 00:30 UTC)
風向・風速西南西 6m/s
視程10km以上
天気現象
全天の4割程度の雲 雲底高度 1680m
気温9℃
湿度81%
気圧1015hPa
METARLEMD 280030Z 25012KT 9999 SCT055 09/06 Q1015 NOSIG
過去の天気等 Google飛行場航空写真 Wunderground天気予報

過去48時間のMETAR

飛行場予報(TAF)
発表時間: 2/28 00:00 CET (2/27 23:00 UTC)
予報対象時間: 28日1時 CET ~ 1日7時 CET
風向・風速南西 4m/s
視程10km以上
全天の4割程度の雲 雲底高度 760m
28日1時 CET ~ 28日11時 CET に一時的に
風向・風速南西 5m/s 瞬間風速 10m/s
28日2時 CET ~ 28日10時 CET に 確率 40% で一時的に
全天の8割程度の雲 雲底高度 430m
28日3時 CET ~ 28日9時 CET に 確率 30% で一時的に
全天の8割程度の雲 雲底高度 270m
28日11時 CET ~ 28日20時 CET に一時的に
風向・風速南西 8m/s 瞬間風速 13m/s
1日4時 CET ~ 1日7時 CET に 確率 30% で一時的に
視程2,500m
天気現象もや
全天の8割程度の雲 雲底高度 180m
TAF LEMD 272300Z 2800/0106 23008KT 9999 SCT025 TX15/2815Z TN03/0106Z
TEMPO 2800/2810 23010G20KT
PROB40 TEMPO 2801/2809 BKN014
PROB30 TEMPO 2802/2808 BKN009
TEMPO 2810/2819 23015G25KT
PROB30 TEMPO 0103/0106 2500 BR BKN006